sensor_id;sensor_type;location;lat;lon;timestamp;pressure;altitude;pressure_sealevel;temperature;humidity
10476;BME280;26166;48.264;11.436;2024-03-25T00:00:32;95410.22;;;9.93;55.92
10476;BME280;26166;48.264;11.436;2024-03-25T00:03:34;95406.94;;;9.91;57.50
10476;BME280;26166;48.264;11.436;2024-03-25T00:06:34;95403.97;;;9.94;57.28
10476;BME280;26166;48.264;11.436;2024-03-25T00:09:34;95395.28;;;9.93;57.29
10476;BME280;26166;48.264;11.436;2024-03-25T00:12:35;95398.72;;;9.94;57.38
10476;BME280;26166;48.264;11.436;2024-03-25T00:15:35;95398.72;;;9.94;56.88
10476;BME280;26166;48.264;11.436;2024-03-25T00:18:37;95398.09;;;9.92;56.64
10476;BME280;26166;48.264;11.436;2024-03-25T00:21:37;95410.38;;;9.91;56.93
10476;BME280;26166;48.264;11.436;2024-03-25T00:24:37;95401.53;;;9.92;56.84
10476;BME280;26166;48.264;11.436;2024-03-25T00:27:37;95400.72;;;9.92;56.81
10476;BME280;26166;48.264;11.436;2024-03-25T00:30:38;95413.00;;;9.91;56.26
10476;BME280;26166;48.264;11.436;2024-03-25T00:33:38;95405.13;;;9.91;56.59
10476;BME280;26166;48.264;11.436;2024-03-25T00:36:38;95402.34;;;9.93;56.90
10476;BME280;26166;48.264;11.436;2024-03-25T00:39:38;95409.41;;;9.92;56.63
10476;BME280;26166;48.264;11.436;2024-03-25T00:42:38;95406.59;;;9.94;56.66
10476;BME280;26166;48.264;11.436;2024-03-25T00:45:38;95401.34;;;9.94;56.23
10476;BME280;26166;48.264;11.436;2024-03-25T00:48:39;95398.91;;;9.92;56.23
10476;BME280;26166;48.264;11.436;2024-03-25T00:51:39;95406.13;;;9.90;56.76
10476;BME280;26166;48.264;11.436;2024-03-25T00:54:39;95400.88;;;9.90;56.51
10476;BME280;26166;48.264;11.436;2024-03-25T00:57:39;95400.09;;;9.90;56.21
10476;BME280;26166;48.264;11.436;2024-03-25T01:00:40;95398.91;;;9.92;56.47
10476;BME280;26166;48.264;11.436;2024-03-25T01:03:40;95389.22;;;9.93;56.86
10476;BME280;26166;48.264;11.436;2024-03-25T01:06:40;95398.53;;;9.95;56.56
10476;BME280;26166;48.264;11.436;2024-03-25T01:09:40;95400.97;;;9.97;56.45
10476;BME280;26166;48.264;11.436;2024-03-25T01:12:40;95396.91;;;9.94;56.01
10476;BME280;26166;48.264;11.436;2024-03-25T01:15:41;95390.84;;;9.94;56.24
10476;BME280;26166;48.264;11.436;2024-03-25T01:18:42;95399.34;;;9.96;56.05
10476;BME280;26166;48.264;11.436;2024-03-25T01:21:42;95390.84;;;9.94;56.16
10476;BME280;26166;48.264;11.436;2024-03-25T01:24:42;95387.41;;;9.93;56.51
10476;BME280;26166;48.264;11.436;2024-03-25T01:27:42;95389.22;;;9.93;55.83
10476;BME280;26166;48.264;11.436;2024-03-25T01:30:43;95387.97;;;9.89;55.88
10476;BME280;26166;48.264;11.436;2024-03-25T01:33:44;95389.94;;;9.86;56.45
10476;BME280;26166;48.264;11.436;2024-03-25T01:36:44;95386.34;;;9.88;56.74
10476;BME280;26166;48.264;11.436;2024-03-25T01:39:45;95392.56;;;9.86;56.36
10476;BME280;26166;48.264;11.436;2024-03-25T01:42:55;95381.09;;;9.88;55.54
10476;BME280;26166;48.264;11.436;2024-03-25T01:45:55;95391.84;;;9.93;56.49
10476;BME280;26166;48.264;11.436;2024-03-25T01:48:55;95379.91;;;9.90;56.24
10476;BME280;26166;48.264;11.436;2024-03-25T01:55:07;95379.09;;;9.90;55.78
10476;BME280;26166;48.264;11.436;2024-03-25T01:58:08;95382.72;;;9.89;55.36
10476;BME280;26166;48.264;11.436;2024-03-25T02:01:08;95376.81;;;9.86;56.33
10476;BME280;26166;48.264;11.436;2024-03-25T02:04:13;95378.63;;;9.86;55.82
10476;BME280;26166;48.264;11.436;2024-03-25T02:07:14;95383.06;;;9.85;55.99
10476;BME280;26166;48.264;11.436;2024-03-25T02:10:14;95376.22;;;9.84;55.97
10476;BME280;26166;48.264;11.436;2024-03-25T02:13:15;95373.59;;;9.84;55.84
10476;BME280;26166;48.264;11.436;2024-03-25T02:16:29;95375.00;;;9.87;56.79
10476;BME280;26166;48.264;11.436;2024-03-25T02:19:29;95368.16;;;9.86;56.89
10476;BME280;26166;48.264;11.436;2024-03-25T02:22:30;95373.22;;;9.88;55.90
10476;BME280;26166;48.264;11.436;2024-03-25T02:25:31;95379.44;;;9.86;56.46
10476;BME280;26166;48.264;11.436;2024-03-25T02:28:32;95377.47;;;9.89;55.84
10476;BME280;26166;48.264;11.436;2024-03-25T02:31:33;95378.47;;;9.88;56.00
10476;BME280;26166;48.264;11.436;2024-03-25T02:34:33;95383.72;;;9.88;55.94
10476;BME280;26166;48.264;11.436;2024-03-25T02:37:33;95376.03;;;9.86;56.38
10476;BME280;26166;48.264;11.436;2024-03-25T02:40:34;95380.66;;;9.84;56.62
10476;BME280;26166;48.264;11.436;2024-03-25T02:43:34;95373.59;;;9.84;55.65
10476;BME280;26166;48.264;11.436;2024-03-25T02:46:34;95375.00;;;9.87;56.30
10476;BME280;26166;48.264;11.436;2024-03-25T02:49:35;95374.66;;;9.90;55.93
10476;BME280;26166;48.264;11.436;2024-03-25T02:52:35;95377.13;;;9.92;55.98
10476;BME280;26166;48.264;11.436;2024-03-25T02:55:35;95378.09;;;9.91;56.13
10476;BME280;26166;48.264;11.436;2024-03-25T02:58:35;95386.50;;;9.86;56.04
10476;BME280;26166;48.264;11.436;2024-03-25T03:01:36;95380.47;;;9.85;55.86
10476;BME280;26166;48.264;11.436;2024-03-25T03:04:37;95383.06;;;9.85;56.52
10476;BME280;26166;48.264;11.436;2024-03-25T03:07:37;95381.47;;;9.84;55.11
10476;BME280;26166;48.264;11.436;2024-03-25T03:10:38;95385.91;;;9.84;56.30
10476;BME280;26166;48.264;11.436;2024-03-25T03:13:38;95380.00;;;9.82;56.28
10476;BME280;26166;48.264;11.436;2024-03-25T03:16:38;95392.31;;;9.81;56.43
10476;BME280;26166;48.264;11.436;2024-03-25T03:19:38;95381.81;;;9.81;56.20
10476;BME280;26166;48.264;11.436;2024-03-25T03:22:38;95389.53;;;9.83;55.99
10476;BME280;26166;48.264;11.436;2024-03-25T03:25:40;95394.78;;;9.83;56.16
10476;BME280;26166;48.264;11.436;2024-03-25T03:28:40;95386.34;;;9.88;55.90
10476;BME280;26166;48.264;11.436;2024-03-25T03:31:40;95393.22;;;9.89;55.98
10476;BME280;26166;48.264;11.436;2024-03-25T03:34:41;95389.94;;;9.86;54.93
10476;BME280;26166;48.264;11.436;2024-03-25T03:37:41;95397.19;;;9.84;55.86
10476;BME280;26166;48.264;11.436;2024-03-25T03:40:41;95394.56;;;9.84;55.40
10476;BME280;26166;48.264;11.436;2024-03-25T03:43:41;95395.75;;;9.82;54.81
10476;BME280;26166;48.264;11.436;2024-03-25T03:46:42;95396.56;;;9.82;55.46
10476;BME280;26166;48.264;11.436;2024-03-25T03:49:42;95393.94;;;9.82;56.21
10476;BME280;26166;48.264;11.436;2024-03-25T03:52:42;95397.19;;;9.84;55.83
10476;BME280;26166;48.264;11.436;2024-03-25T03:55:42;95392.94;;;9.83;55.48
10476;BME280;26166;48.264;11.436;2024-03-25T03:58:52;95397.19;;;9.84;54.96
10476;BME280;26166;48.264;11.436;2024-03-25T04:01:54;95392.16;;;9.83;54.58
10476;BME280;26166;48.264;11.436;2024-03-25T04:04:55;95391.94;;;9.84;54.28
10476;BME280;26166;48.264;11.436;2024-03-25T04:07:55;95397.19;;;9.84;55.62
10476;BME280;26166;48.264;11.436;2024-03-25T04:10:55;95399.81;;;9.84;56.00
10476;BME280;26166;48.264;11.436;2024-03-25T04:13:55;95395.38;;;9.85;53.92
10476;BME280;26166;48.264;11.436;2024-03-25T04:16:55;95401.19;;;9.80;54.65
10476;BME280;26166;48.264;11.436;2024-03-25T04:19:58;95412.03;;;9.77;53.83
10476;BME280;26166;48.264;11.436;2024-03-25T04:22:58;95414.03;;;9.75;54.32
10476;BME280;26166;48.264;11.436;2024-03-25T04:26:01;95421.53;;;9.78;54.47
10476;BME280;26166;48.264;11.436;2024-03-25T04:29:01;95417.28;;;9.77;53.63
10476;BME280;26166;48.264;11.436;2024-03-25T04:32:05;95423.16;;;9.79;55.46
10476;BME280;26166;48.264;11.436;2024-03-25T04:35:06;95424.16;;;9.78;54.03
10476;BME280;26166;48.264;11.436;2024-03-25T04:38:06;95423.16;;;9.79;53.81
10476;BME280;26166;48.264;11.436;2024-03-25T04:41:09;95422.16;;;9.80;54.05
10476;BME280;26166;48.264;11.436;2024-03-25T04:44:10;95416.91;;;9.80;53.58
10476;BME280;26166;48.264;11.436;2024-03-25T04:47:10;95410.66;;;9.81;53.83
10476;BME280;26166;48.264;11.436;2024-03-25T04:50:15;95410.50;;;9.83;54.86
10476;BME280;26166;48.264;11.436;2024-03-25T04:53:15;95414.75;;;9.84;54.45
10476;BME280;26166;48.264;11.436;2024-03-25T04:56:15;95407.69;;;9.84;53.86
10476;BME280;26166;48.264;11.436;2024-03-25T04:59:16;95420.16;;;9.82;53.93
10476;BME280;26166;48.264;11.436;2024-03-25T05:02:16;95415.56;;;9.84;54.14
10476;BME280;26166;48.264;11.436;2024-03-25T05:05:18;95416.56;;;9.83;53.61
10476;BME280;26166;48.264;11.436;2024-03-25T05:08:18;95423.44;;;9.84;53.96
10476;BME280;26166;48.264;11.436;2024-03-25T05:11:18;95439.16;;;9.84;54.55
10476;BME280;26166;48.264;11.436;2024-03-25T05:14:18;95436.34;;;9.86;55.09
10476;BME280;26166;48.264;11.436;2024-03-25T05:17:19;95445.03;;;9.86;53.79
10476;BME280;26166;48.264;11.436;2024-03-25T05:24:06;95446.69;;;9.88;54.30
10476;BME280;26166;48.264;11.436;2024-03-25T05:27:06;95448.31;;;9.89;54.59
10476;BME280;26166;48.264;11.436;2024-03-25T05:30:06;95449.13;;;9.89;53.26
10476;BME280;26166;48.264;11.436;2024-03-25T05:33:07;95456.97;;;9.89;54.03
10476;BME280;26166;48.264;11.436;2024-03-25T05:36:07;95453.72;;;9.87;53.20
10476;BME280;26166;48.264;11.436;2024-03-25T05:39:08;95452.91;;;9.86;54.41
10476;BME280;26166;48.264;11.436;2024-03-25T05:42:08;95458.59;;;9.90;53.33
10476;BME280;26166;48.264;11.436;2024-03-25T05:45:08;95470.28;;;9.88;53.35
10476;BME280;26166;48.264;11.436;2024-03-25T05:48:09;95467.66;;;9.88;52.83
10476;BME280;26166;48.264;11.436;2024-03-25T05:51:10;95469.28;;;9.89;53.31
10476;BME280;26166;48.264;11.436;2024-03-25T05:54:11;95467.47;;;9.89;52.94
10476;BME280;26166;48.264;11.436;2024-03-25T05:57:11;95469.91;;;9.91;53.04
10476;BME280;26166;48.264;11.436;2024-03-25T06:00:11;95470.72;;;9.91;53.06
10476;BME280;26166;48.264;11.436;2024-03-25T06:03:13;95467.13;;;9.92;52.97
10476;BME280;26166;48.264;11.436;2024-03-25T06:06:13;95471.38;;;9.93;53.83
10476;BME280;26166;48.264;11.436;2024-03-25T06:09:14;95465.94;;;9.95;53.18
10476;BME280;26166;48.264;11.436;2024-03-25T06:12:16;95467.94;;;9.93;53.32
10476;BME280;26166;48.264;11.436;2024-03-25T06:15:16;95476.41;;;9.95;53.58
10476;BME280;26166;48.264;11.436;2024-03-25T06:18:16;95476.41;;;9.95;53.14
10476;BME280;26166;48.264;11.436;2024-03-25T06:21:17;95484.28;;;9.95;53.10
10476;BME280;26166;48.264;11.436;2024-03-25T06:24:17;95483.47;;;9.94;53.48
10476;BME280;26166;48.264;11.436;2024-03-25T06:27:19;95488.09;;;9.92;53.36
10476;BME280;26166;48.264;11.436;2024-03-25T06:30:19;95492.91;;;9.89;52.69
10476;BME280;26166;48.264;11.436;2024-03-25T06:33:38;95497.13;;;9.90;53.45
10476;BME280;26166;48.264;11.436;2024-03-25T06:37:17;95500.41;;;9.92;52.53
10476;BME280;26166;48.264;11.436;2024-03-25T06:40:17;95487.28;;;9.92;52.65
10476;BME280;26166;48.264;11.436;2024-03-25T06:43:17;95493.72;;;9.89;52.48
10476;BME280;26166;48.264;11.436;2024-03-25T06:46:18;95503.84;;;9.92;52.26
10476;BME280;26166;48.264;11.436;2024-03-25T06:49:19;95500.22;;;9.93;52.34
10476;BME280;26166;48.264;11.436;2024-03-25T06:52:19;95501.03;;;9.94;52.32
10476;BME280;26166;48.264;11.436;2024-03-25T06:55:19;95499.88;;;9.96;52.08
10476;BME280;26166;48.264;11.436;2024-03-25T06:58:23;95492.81;;;9.97;52.74
10476;BME280;26166;48.264;11.436;2024-03-25T07:01:23;95502.75;;;10.01;52.50
10476;BME280;26166;48.264;11.436;2024-03-25T07:04:23;95501.94;;;10.01;52.29
10476;BME280;26166;48.264;11.436;2024-03-25T07:07:23;95497.50;;;10.01;52.40
10476;BME280;26166;48.264;11.436;2024-03-25T07:10:24;95507.81;;;10.03;52.36
10476;BME280;26166;48.264;11.436;2024-03-25T07:13:24;95500.75;;;10.03;52.12
10476;BME280;26166;48.264;11.436;2024-03-25T07:16:24;95497.13;;;10.04;51.90
10476;BME280;26166;48.264;11.436;2024-03-25T07:19:24;95498.94;;;10.04;51.98
10476;BME280;26166;48.264;11.436;2024-03-25T07:22:25;95497.97;;;10.05;52.21
10476;BME280;26166;48.264;11.436;2024-03-25T07:25:25;95495.50;;;10.03;51.99
10476;BME280;26166;48.264;11.436;2024-03-25T07:28:25;95489.44;;;10.03;52.20
10476;BME280;26166;48.264;11.436;2024-03-25T07:31:25;95498.31;;;10.02;52.03
10476;BME280;26166;48.264;11.436;2024-03-25T07:34:26;95490.19;;;9.97;51.92
10476;BME280;26166;48.264;11.436;2024-03-25T07:37:26;95489.53;;;9.95;52.13
10476;BME280;26166;48.264;11.436;2024-03-25T07:40:26;95487.28;;;9.92;52.08
10476;BME280;26166;48.264;11.436;2024-03-25T07:43:27;95490.53;;;9.94;52.03
10476;BME280;26166;48.264;11.436;2024-03-25T07:46:27;95488.91;;;9.93;52.36
10476;BME280;26166;48.264;11.436;2024-03-25T07:49:27;95501.03;;;9.94;51.82
10476;BME280;26166;48.264;11.436;2024-03-25T07:52:27;95493.78;;;9.96;51.78
10476;BME280;26166;48.264;11.436;2024-03-25T07:55:27;95496.41;;;9.96;51.60
10476;BME280;26166;48.264;11.436;2024-03-25T07:58:28;95492.81;;;9.97;51.74
10476;BME280;26166;48.264;11.436;2024-03-25T08:01:28;95486.56;;;9.98;51.98
10476;BME280;26166;48.264;11.436;2024-03-25T08:04:29;95498.88;;;9.97;52.06
10476;BME280;26166;48.264;11.436;2024-03-25T08:07:29;95491.16;;;9.96;51.91
10476;BME280;26166;48.264;11.436;2024-03-25T08:10:29;95486.28;;;9.93;51.84
10476;BME280;26166;48.264;11.436;2024-03-25T08:13:29;95484.47;;;9.93;51.53
10476;BME280;26166;48.264;11.436;2024-03-25T08:16:29;95490.34;;;9.95;51.94
10476;BME280;26166;48.264;11.436;2024-03-25T08:19:30;95491.16;;;9.96;51.75
10476;BME280;26166;48.264;11.436;2024-03-25T08:22:31;95483.28;;;9.96;51.64
10476;BME280;26166;48.264;11.436;2024-03-25T08:25:31;95485.75;;;9.97;51.84
10476;BME280;26166;48.264;11.436;2024-03-25T08:28:32;95482.94;;;9.99;51.52
10476;BME280;26166;48.264;11.436;2024-03-25T08:31:32;95480.97;;;10.01;51.60
10476;BME280;26166;48.264;11.436;2024-03-25T08:34:33;95483.59;;;10.01;51.46
10476;BME280;26166;48.264;11.436;2024-03-25T08:37:34;95483.94;;;9.98;51.55
10476;BME280;26166;48.264;11.436;2024-03-25T08:40:34;95479.50;;;9.98;51.87
10476;BME280;26166;48.264;11.436;2024-03-25T08:43:34;95479.75;;;10.03;51.66
10476;BME280;26166;48.264;11.436;2024-03-25T08:46:34;95485.66;;;10.05;51.29
10476;BME280;26166;48.264;11.436;2024-03-25T08:49:35;95477.94;;;10.04;51.67
10476;BME280;26166;48.264;11.436;2024-03-25T08:52:35;95473.91;;;10.01;51.64
10476;BME280;26166;48.264;11.436;2024-03-25T08:55:35;95477.94;;;10.04;51.73
10476;BME280;26166;48.264;11.436;2024-03-25T08:58:36;95474.97;;;10.07;51.30
10476;BME280;26166;48.264;11.436;2024-03-25T09:01:36;95469.53;;;10.08;51.65
10476;BME280;26166;48.264;11.436;2024-03-25T09:04:36;95461.84;;;10.07;51.72
10476;BME280;26166;48.264;11.436;2024-03-25T09:07:36;95464.94;;;10.10;51.23
10476;BME280;26166;48.264;11.436;2024-03-25T09:10:36;95454.03;;;10.14;51.56
10476;BME280;26166;48.264;11.436;2024-03-25T09:13:55;95450.06;;;10.18;51.47
10476;BME280;26166;48.264;11.436;2024-03-25T09:16:55;95439.41;;;10.19;51.41
10476;BME280;26166;48.264;11.436;2024-03-25T09:19:56;95448.91;;;10.20;50.81
10476;BME280;26166;48.264;11.436;2024-03-25T09:22:56;95440.00;;;10.21;50.70
10476;BME280;26166;48.264;11.436;2024-03-25T09:25:56;95439.22;;;10.21;51.21
10476;BME280;26166;48.264;11.436;2024-03-25T09:28:56;95437.59;;;10.20;50.75
10476;BME280;26166;48.264;11.436;2024-03-25T09:31:57;95437.38;;;10.21;50.81
10476;BME280;26166;48.264;11.436;2024-03-25T09:34:57;95442.03;;;10.19;50.68
10476;BME280;26166;48.264;11.436;2024-03-25T09:37:57;95423.66;;;10.19;50.69
10476;BME280;26166;48.264;11.436;2024-03-25T09:40:57;95430.00;;;10.25;51.21
10476;BME280;26166;48.264;11.436;2024-03-25T09:43:58;95430.81;;;10.25;50.47
10476;BME280;26166;48.264;11.436;2024-03-25T09:47:00;95426.38;;;10.26;50.46
10476;BME280;26166;48.264;11.436;2024-03-25T09:50:02;95421.13;;;10.26;50.69
10476;BME280;26166;48.264;11.436;2024-03-25T09:53:04;95423.56;;;10.27;50.27
10476;BME280;26166;48.264;11.436;2024-03-25T09:56:04;95419.94;;;10.28;50.33
10476;BME280;26166;48.264;11.436;2024-03-25T09:59:05;95428.44;;;10.30;50.15
10476;BME280;26166;48.264;11.436;2024-03-25T10:02:05;95422.22;;;10.31;50.01
10476;BME280;26166;48.264;11.436;2024-03-25T10:05:09;95420.81;;;10.35;49.98
10476;BME280;26166;48.264;11.436;2024-03-25T10:08:09;95400.81;;;10.34;49.56
10476;BME280;26166;48.264;11.436;2024-03-25T10:11:10;95405.91;;;10.36;49.83
10476;BME280;26166;48.264;11.436;2024-03-25T10:14:10;95394.19;;;10.39;48.92
10476;BME280;26166;48.264;11.436;2024-03-25T10:17:10;95397.84;;;10.38;48.69
10476;BME280;26166;48.264;11.436;2024-03-25T10:20:14;95382.88;;;10.38;47.86
10476;BME280;26166;48.264;11.436;2024-03-25T10:23:14;95388.94;;;10.39;48.49
10476;BME280;26166;48.264;11.436;2024-03-25T10:26:27;95381.28;;;10.37;47.81
10476;BME280;26166;48.264;11.436;2024-03-25T10:29:28;95386.31;;;10.39;46.88
10476;BME280;26166;48.264;11.436;2024-03-25T10:32:28;95384.50;;;10.39;47.38
10476;BME280;26166;48.264;11.436;2024-03-25T10:35:29;95370.38;;;10.40;46.47
10476;BME280;26166;48.264;11.436;2024-03-25T10:38:30;95379.50;;;10.44;47.27
10476;BME280;26166;48.264;11.436;2024-03-25T10:41:31;95375.72;;;10.47;46.32
10476;BME280;26166;48.264;11.436;2024-03-25T10:44:32;95372.28;;;10.46;46.26
10476;BME280;26166;48.264;11.436;2024-03-25T10:47:33;95377.31;;;10.48;46.07
10476;BME280;26166;48.264;11.436;2024-03-25T10:50:34;95359.16;;;10.46;45.54
10476;BME280;26166;48.264;11.436;2024-03-25T10:53:34;95359.34;;;10.45;44.91
10476;BME280;26166;48.264;11.436;2024-03-25T10:56:35;95352.44;;;10.44;45.79
10476;BME280;26166;48.264;11.436;2024-03-25T10:59:36;95340.53;;;10.41;44.84
10476;BME280;26166;48.264;11.436;2024-03-25T11:02:42;95344.56;;;10.44;44.41
10476;BME280;26166;48.264;11.436;2024-03-25T11:05:43;95337.34;;;10.46;44.13
10476;BME280;26166;48.264;11.436;2024-03-25T11:08:43;95343.41;;;10.46;45.13
10476;BME280;26166;48.264;11.436;2024-03-25T11:11:47;95344.81;;;10.49;45.07
10476;BME280;26166;48.264;11.436;2024-03-25T11:14:56;95335.97;;;10.50;44.38
10476;BME280;26166;48.264;11.436;2024-03-25T11:17:58;95325.25;;;10.51;43.67
10476;BME280;26166;48.264;11.436;2024-03-25T11:21:05;95322.44;;;10.53;43.54
10476;BME280;26166;48.264;11.436;2024-03-25T11:24:07;95326.72;;;10.54;42.79
10476;BME280;26166;48.264;11.436;2024-03-25T11:27:08;95315.38;;;10.53;43.17
10476;BME280;26166;48.264;11.436;2024-03-25T11:30:08;95310.94;;;10.54;42.50
10476;BME280;26166;48.264;11.436;2024-03-25T11:33:09;95301.44;;;10.53;42.59
10476;BME280;26166;48.264;11.436;2024-03-25T11:36:09;95284.69;;;10.54;42.54
10476;BME280;26166;48.264;11.436;2024-03-25T11:39:09;95281.06;;;10.55;42.90
10476;BME280;26166;48.264;11.436;2024-03-25T11:42:10;95274.19;;;10.54;41.97
10476;BME280;26166;48.264;11.436;2024-03-25T11:45:13;95271.97;;;10.57;42.92
10476;BME280;26166;48.264;11.436;2024-03-25T11:48:15;95270.16;;;10.58;43.64
10476;BME280;26166;48.264;11.436;2024-03-25T11:51:19;95262.28;;;10.58;42.81
10476;BME280;26166;48.264;11.436;2024-03-25T11:54:19;95260.66;;;10.57;42.66
10476;BME280;26166;48.264;11.436;2024-03-25T11:57:19;95259.25;;;10.54;42.30
10476;BME280;26166;48.264;11.436;2024-03-25T12:00:20;95256.41;;;10.56;42.68
10476;BME280;26166;48.264;11.436;2024-03-25T12:03:21;95256.41;;;10.56;42.83
10476;BME280;26166;48.264;11.436;2024-03-25T12:06:21;95242.09;;;10.58;42.67
10476;BME280;26166;48.264;11.436;2024-03-25T12:09:21;95240.09;;;10.60;42.89
10476;BME280;26166;48.264;11.436;2024-03-25T12:12:40;95235.66;;;10.61;42.99
10476;BME280;26166;48.264;11.436;2024-03-25T12:15:43;95237.25;;;10.62;43.48
10476;BME280;26166;48.264;11.436;2024-03-25T12:18:44;95225.13;;;10.61;43.61
10476;BME280;26166;48.264;11.436;2024-03-25T12:21:44;95223.97;;;10.64;43.65
10476;BME280;26166;48.264;11.436;2024-03-25T12:24:48;95225.78;;;10.63;43.13
10476;BME280;26166;48.264;11.436;2024-03-25T12:27:48;95214.47;;;10.63;43.24
10476;BME280;26166;48.264;11.436;2024-03-25T12:30:50;95218.06;;;10.61;42.97
10476;BME280;26166;48.264;11.436;2024-03-25T12:33:50;95209.38;;;10.61;44.12
10476;BME280;26166;48.264;11.436;2024-03-25T12:36:50;95210.03;;;10.63;43.53
10476;BME280;26166;48.264;11.436;2024-03-25T12:39:50;95200.94;;;10.66;43.46
10476;BME280;26166;48.264;11.436;2024-03-25T12:42:54;95197.13;;;10.68;43.62
10476;BME280;26166;48.264;11.436;2024-03-25T12:45:54;95191.66;;;10.70;43.86
10476;BME280;26166;48.264;11.436;2024-03-25T12:48:54;95193.47;;;10.69;43.45
10476;BME280;26166;48.264;11.436;2024-03-25T12:51:55;95183.19;;;10.68;43.08
10476;BME280;26166;48.264;11.436;2024-03-25T12:54:55;95179.75;;;10.67;42.99
10476;BME280;26166;48.264;11.436;2024-03-25T12:57:55;95183.97;;;10.68;43.46
10476;BME280;26166;48.264;11.436;2024-03-25T13:00:55;95171.88;;;10.67;43.62
10476;BME280;26166;48.264;11.436;2024-03-25T13:03:55;95166.59;;;10.67;42.81
10476;BME280;26166;48.264;11.436;2024-03-25T13:06:55;95165.78;;;10.67;42.20
10476;BME280;26166;48.264;11.436;2024-03-25T13:09:56;95158.09;;;10.65;42.12
10476;BME280;26166;48.264;11.436;2024-03-25T13:12:56;95156.28;;;10.66;41.77
10476;BME280;26166;48.264;11.436;2024-03-25T13:15:56;95145.59;;;10.67;41.95
10476;BME280;26166;48.264;11.436;2024-03-25T13:18:57;95138.09;;;10.64;41.60
10476;BME280;26166;48.264;11.436;2024-03-25T13:21:57;95128.59;;;10.63;41.71
10476;BME280;26166;48.264;11.436;2024-03-25T13:24:57;95137.09;;;10.65;42.98
10476;BME280;26166;48.264;11.436;2024-03-25T13:27:57;95123.75;;;10.67;42.07
10476;BME280;26166;48.264;11.436;2024-03-25T13:30:57;95121.75;;;10.69;42.08
10476;BME280;26166;48.264;11.436;2024-03-25T13:33:57;95120.94;;;10.68;42.87
10476;BME280;26166;48.264;11.436;2024-03-25T13:36:58;95111.63;;;10.66;42.80
10476;BME280;26166;48.264;11.436;2024-03-25T13:39:58;95105.19;;;10.68;42.35
10476;BME280;26166;48.264;11.436;2024-03-25T13:42:58;95091.44;;;10.66;41.51
10476;BME280;26166;48.264;11.436;2024-03-25T13:45:58;95089.81;;;10.65;41.23
10476;BME280;26166;48.264;11.436;2024-03-25T13:48:58;95084.56;;;10.65;40.99
10476;BME280;26166;48.264;11.436;2024-03-25T13:51:58;95076.47;;;10.67;41.51
10476;BME280;26166;48.264;11.436;2024-03-25T13:54:59;95063.34;;;10.67;41.14
10476;BME280;26166;48.264;11.436;2024-03-25T13:57:59;95055.69;;;10.65;41.22
10476;BME280;26166;48.264;11.436;2024-03-25T14:00:59;95056.31;;;10.67;41.70
10476;BME280;26166;48.264;11.436;2024-03-25T14:04:00;95065.81;;;10.68;41.45
10476;BME280;26166;48.264;11.436;2024-03-25T14:07:01;95062.38;;;10.68;41.79
10476;BME280;26166;48.264;11.436;2024-03-25T14:10:01;95057.13;;;10.68;41.67
10476;BME280;26166;48.264;11.436;2024-03-25T14:13:01;95047.41;;;10.68;41.70
10476;BME280;26166;48.264;11.436;2024-03-25T14:16:01;95048.03;;;10.70;41.49
10476;BME280;26166;48.264;11.436;2024-03-25T14:19:03;95037.34;;;10.72;41.30
10476;BME280;26166;48.264;11.436;2024-03-25T14:22:04;95022.38;;;10.72;41.40
10476;BME280;26166;48.264;11.436;2024-03-25T14:25:04;95027.63;;;10.72;42.22
10476;BME280;26166;48.264;11.436;2024-03-25T14:28:04;95027.63;;;10.72;41.99
10476;BME280;26166;48.264;11.436;2024-03-25T14:31:04;95017.13;;;10.72;41.77
10476;BME280;26166;48.264;11.436;2024-03-25T14:34:06;95014.50;;;10.72;41.74
10476;BME280;26166;48.264;11.436;2024-03-25T14:37:06;95011.06;;;10.72;41.40
10476;BME280;26166;48.264;11.436;2024-03-25T14:40:06;95008.25;;;10.73;41.68
10476;BME280;26166;48.264;11.436;2024-03-25T14:43:07;95005.59;;;10.73;41.59
10476;BME280;26166;48.264;11.436;2024-03-25T14:46:07;95003.59;;;10.75;41.62
10476;BME280;26166;48.264;11.436;2024-03-25T14:49:07;94997.34;;;10.76;42.09
10476;BME280;26166;48.264;11.436;2024-03-25T14:52:07;94995.69;;;10.75;42.52
10476;BME280;26166;48.264;11.436;2024-03-25T14:55:08;94992.09;;;10.76;41.95
10476;BME280;26166;48.264;11.436;2024-03-25T14:58:10;94986.03;;;10.76;41.50
10476;BME280;26166;48.264;11.436;2024-03-25T15:01:10;94972.06;;;10.75;40.91
10476;BME280;26166;48.264;11.436;2024-03-25T15:04:11;94968.63;;;10.75;41.05
10476;BME280;26166;48.264;11.436;2024-03-25T15:07:11;94965.19;;;10.74;41.41
10476;BME280;26166;48.264;11.436;2024-03-25T15:10:11;94954.91;;;10.73;41.11
10476;BME280;26166;48.264;11.436;2024-03-25T15:13:11;94947.84;;;10.73;41.18
10476;BME280;26166;48.264;11.436;2024-03-25T15:16:12;94951.47;;;10.72;40.67
10476;BME280;26166;48.264;11.436;2024-03-25T15:19:12;94947.19;;;10.71;40.86
10476;BME280;26166;48.264;11.436;2024-03-25T15:22:12;94952.44;;;10.71;41.73
10476;BME280;26166;48.264;11.436;2024-03-25T15:25:12;94941.78;;;10.73;41.66
10476;BME280;26166;48.264;11.436;2024-03-25T15:28:13;94938.34;;;10.72;40.63
10476;BME280;26166;48.264;11.436;2024-03-25T15:31:13;94929.44;;;10.73;40.67
10476;BME280;26166;48.264;11.436;2024-03-25T15:34:13;94921.56;;;10.73;41.50
10476;BME280;26166;48.264;11.436;2024-03-25T15:37:14;94921.34;;;10.75;40.46
10476;BME280;26166;48.264;11.436;2024-03-25T15:40:16;94917.91;;;10.74;40.97
10476;BME280;26166;48.264;11.436;2024-03-25T15:43:18;94915.28;;;10.74;40.66
10476;BME280;26166;48.264;11.436;2024-03-25T15:46:21;94912.06;;;10.72;41.13
10476;BME280;26166;48.264;11.436;2024-03-25T15:49:24;94909.63;;;10.71;40.67
10476;BME280;26166;48.264;11.436;2024-03-25T15:52:25;94906.81;;;10.72;40.41
10476;BME280;26166;48.264;11.436;2024-03-25T15:55:25;94896.31;;;10.72;41.07
10476;BME280;26166;48.264;11.436;2024-03-25T15:58:28;94891.88;;;10.73;40.68